sensor_id;sensor_type;location;lat;lon;timestamp;pressure;altitude;pressure_sealevel;temperature;humidity
13661;BME280;6903;49.480;11.102;2023-05-23T00:00:40;97503.66;;;17.07;100.00
13661;BME280;6903;49.480;11.102;2023-05-23T00:03:06;97505.50;;;17.07;100.00
13661;BME280;6903;49.480;11.102;2023-05-23T00:05:31;97494.84;;;17.07;100.00
13661;BME280;6903;49.480;11.102;2023-05-23T00:07:56;97506.16;;;17.09;100.00
13661;BME280;6903;49.480;11.102;2023-05-23T00:10:22;97492.84;;;17.09;100.00
13661;BME280;6903;49.480;11.102;2023-05-23T00:12:47;97498.97;;;17.09;100.00
13661;BME280;6903;49.480;11.102;2023-05-23T00:15:13;97513.97;;;17.10;100.00
13661;BME280;6903;49.480;11.102;2023-05-23T00:17:38;97506.97;;;17.09;100.00
13661;BME280;6903;49.480;11.102;2023-05-23T00:20:06;97506.81;;;17.11;100.00
13661;BME280;6903;49.480;11.102;2023-05-23T00:22:36;97503.16;;;17.12;100.00
13661;BME280;6903;49.480;11.102;2023-05-23T00:25:04;97497.63;;;17.13;100.00
13661;BME280;6903;49.480;11.102;2023-05-23T00:27:30;97508.66;;;17.10;100.00
13661;BME280;6903;49.480;11.102;2023-05-23T00:29:55;97513.31;;;17.08;100.00
13661;BME280;6903;49.480;11.102;2023-05-23T00:32:20;97510.16;;;17.05;100.00
13661;BME280;6903;49.480;11.102;2023-05-23T00:34:46;97513.84;;;17.04;100.00
13661;BME280;6903;49.480;11.102;2023-05-23T00:37:12;97514.19;;;17.01;100.00
13661;BME280;6903;49.480;11.102;2023-05-23T00:39:37;97517.19;;;16.98;100.00
13661;BME280;6903;49.480;11.102;2023-05-23T00:42:03;97518.53;;;16.93;100.00
13661;BME280;6903;49.480;11.102;2023-05-23T00:44:29;97517.50;;;16.94;100.00
13661;BME280;6903;49.480;11.102;2023-05-23T00:46:55;97511.72;;;16.91;100.00
13661;BME280;6903;49.480;11.102;2023-05-23T00:49:22;97532.00;;;16.92;100.00
13661;BME280;6903;49.480;11.102;2023-05-23T00:51:47;97527.53;;;16.92;100.00
13661;BME280;6903;49.480;11.102;2023-05-23T00:54:42;97530.38;;;16.91;100.00
13661;BME280;6903;49.480;11.102;2023-05-23T00:57:07;97528.03;;;16.88;100.00
13661;BME280;6903;49.480;11.102;2023-05-23T00:59:34;97523.72;;;16.87;100.00
13661;BME280;6903;49.480;11.102;2023-05-23T01:02:01;97535.53;;;16.84;100.00
13661;BME280;6903;49.480;11.102;2023-05-23T01:04:26;97532.22;;;16.82;100.00
13661;BME280;6903;49.480;11.102;2023-05-23T01:06:55;97532.38;;;16.81;100.00
13661;BME280;6903;49.480;11.102;2023-05-23T01:09:22;97523.06;;;16.77;100.00
13661;BME280;6903;49.480;11.102;2023-05-23T01:12:19;97526.38;;;16.79;100.00
13661;BME280;6903;49.480;11.102;2023-05-23T01:19:59;97529.59;;;16.66;100.00
13661;BME280;6903;49.480;11.102;2023-05-23T01:22:48;97532.09;;;16.60;100.00
13661;BME280;6903;49.480;11.102;2023-05-23T01:28:04;97526.47;;;16.47;100.00
13661;BME280;6903;49.480;11.102;2023-05-23T01:30:34;97519.13;;;16.41;100.00
13661;BME280;6903;49.480;11.102;2023-05-23T01:33:01;97515.28;;;16.35;100.00
13661;BME280;6903;49.480;11.102;2023-05-23T01:35:27;97519.66;;;16.28;100.00
13661;BME280;6903;49.480;11.102;2023-05-23T01:37:54;97510.66;;;16.21;100.00
13661;BME280;6903;49.480;11.102;2023-05-23T01:40:20;97522.63;;;16.17;100.00
13661;BME280;6903;49.480;11.102;2023-05-23T01:42:46;97517.81;;;16.13;100.00
13661;BME280;6903;49.480;11.102;2023-05-23T01:45:12;97525.44;;;16.08;100.00
13661;BME280;6903;49.480;11.102;2023-05-23T01:47:39;97514.81;;;16.08;100.00
13661;BME280;6903;49.480;11.102;2023-05-23T01:50:07;97517.16;;;16.11;100.00
13661;BME280;6903;49.480;11.102;2023-05-23T01:52:33;97524.81;;;16.14;100.00
13661;BME280;6903;49.480;11.102;2023-05-23T01:55:00;97519.66;;;16.12;100.00
13661;BME280;6903;49.480;11.102;2023-05-23T01:57:28;97529.28;;;16.13;100.00
13661;BME280;6903;49.480;11.102;2023-05-23T01:59:53;97527.13;;;16.17;100.00
13661;BME280;6903;49.480;11.102;2023-05-23T02:02:19;97528.44;;;16.21;100.00
13661;BME280;6903;49.480;11.102;2023-05-23T02:04:44;97527.94;;;16.25;100.00
13661;BME280;6903;49.480;11.102;2023-05-23T02:07:10;97533.75;;;16.29;100.00
13661;BME280;6903;49.480;11.102;2023-05-23T02:09:35;97530.47;;;16.27;100.00
13661;BME280;6903;49.480;11.102;2023-05-23T02:12:00;97529.28;;;16.29;100.00
13661;BME280;6903;49.480;11.102;2023-05-23T02:14:26;97537.78;;;16.25;100.00
13661;BME280;6903;49.480;11.102;2023-05-23T02:16:53;97526.97;;;16.18;100.00
13661;BME280;6903;49.480;11.102;2023-05-23T02:19:18;97533.44;;;16.16;100.00
13661;BME280;6903;49.480;11.102;2023-05-23T02:21:44;97529.78;;;16.09;100.00
13661;BME280;6903;49.480;11.102;2023-05-23T02:24:09;97528.63;;;16.03;100.00
13661;BME280;6903;49.480;11.102;2023-05-23T02:26:35;97525.28;;;16.01;100.00
13661;BME280;6903;49.480;11.102;2023-05-23T02:29:01;97527.94;;;16.01;100.00
13661;BME280;6903;49.480;11.102;2023-05-23T02:31:26;97534.78;;;16.04;100.00
13661;BME280;6903;49.480;11.102;2023-05-23T02:33:51;97534.94;;;15.94;100.00
13661;BME280;6903;49.480;11.102;2023-05-23T02:36:17;97526.13;;;15.94;100.00
13661;BME280;6903;49.480;11.102;2023-05-23T02:38:43;97528.94;;;15.92;100.00
13661;BME280;6903;49.480;11.102;2023-05-23T02:41:08;97523.13;;;15.89;100.00
13661;BME280;6903;49.480;11.102;2023-05-23T02:43:33;97535.09;;;15.85;100.00
13661;BME280;6903;49.480;11.102;2023-05-23T02:45:59;97553.53;;;15.78;100.00
13661;BME280;6903;49.480;11.102;2023-05-23T02:48:24;97551.38;;;15.74;100.00
13661;BME280;6903;49.480;11.102;2023-05-23T02:50:49;97556.34;;;15.69;100.00
13661;BME280;6903;49.480;11.102;2023-05-23T02:53:15;97555.66;;;15.67;100.00
13661;BME280;6903;49.480;11.102;2023-05-23T02:55:40;97553.50;;;15.62;100.00
13661;BME280;6903;49.480;11.102;2023-05-23T02:58:07;97552.66;;;15.62;100.00
13661;BME280;6903;49.480;11.102;2023-05-23T03:00:33;97547.66;;;15.58;100.00
13661;BME280;6903;49.480;11.102;2023-05-23T03:02:58;97555.13;;;15.55;100.00
13661;BME280;6903;49.480;11.102;2023-05-23T03:05:23;97561.25;;;15.47;100.00
13661;BME280;6903;49.480;11.102;2023-05-23T03:07:49;97561.59;;;15.44;100.00
13661;BME280;6903;49.480;11.102;2023-05-23T03:10:16;97564.09;;;15.46;100.00
13661;BME280;6903;49.480;11.102;2023-05-23T03:12:41;97565.56;;;15.48;100.00
13661;BME280;6903;49.480;11.102;2023-05-23T03:15:08;97570.88;;;15.48;100.00
13661;BME280;6903;49.480;11.102;2023-05-23T03:17:33;97568.06;;;15.50;100.00
13661;BME280;6903;49.480;11.102;2023-05-23T03:19:59;97570.56;;;15.51;100.00
13661;BME280;6903;49.480;11.102;2023-05-23T03:22:24;97564.44;;;15.51;100.00
13661;BME280;6903;49.480;11.102;2023-05-23T03:24:49;97575.06;;;15.51;100.00
13661;BME280;6903;49.480;11.102;2023-05-23T03:27:15;97568.06;;;15.50;100.00
13661;BME280;6903;49.480;11.102;2023-05-23T03:29:40;97576.88;;;15.50;100.00
13661;BME280;6903;49.480;11.102;2023-05-23T03:32:05;97577.56;;;15.52;100.00
13661;BME280;6903;49.480;11.102;2023-05-23T03:34:31;97581.53;;;15.56;100.00
13661;BME280;6903;49.480;11.102;2023-05-23T03:36:58;97583.22;;;15.57;100.00
13661;BME280;6903;49.480;11.102;2023-05-23T03:39:23;97585.56;;;15.61;100.00
13661;BME280;6903;49.480;11.102;2023-05-23T03:41:49;97588.69;;;15.64;100.00
13661;BME280;6903;49.480;11.102;2023-05-23T03:44:14;97591.53;;;15.71;100.00
13661;BME280;6903;49.480;11.102;2023-05-23T03:46:40;97595.38;;;15.76;100.00
13661;BME280;6903;49.480;11.102;2023-05-23T03:49:05;97604.38;;;15.83;100.00
13661;BME280;6903;49.480;11.102;2023-05-23T03:51:30;97598.41;;;15.89;100.00
13661;BME280;6903;49.480;11.102;2023-05-23T03:53:55;97605.56;;;15.97;100.00
13661;BME280;6903;49.480;11.102;2023-05-23T03:56:21;97604.75;;;16.04;100.00
13661;BME280;6903;49.480;11.102;2023-05-23T03:58:47;97596.63;;;16.14;100.00
13661;BME280;6903;49.480;11.102;2023-05-23T04:01:12;97599.47;;;16.20;100.00
13661;BME280;6903;49.480;11.102;2023-05-23T04:03:37;97597.63;;;16.29;100.00
13661;BME280;6903;49.480;11.102;2023-05-23T04:06:03;97596.31;;;16.33;100.00
13661;BME280;6903;49.480;11.102;2023-05-23T04:08:28;97588.66;;;16.38;100.00
13661;BME280;6903;49.480;11.102;2023-05-23T04:10:58;97593.16;;;16.45;100.00
13661;BME280;6903;49.480;11.102;2023-05-23T04:13:23;97597.16;;;16.57;100.00
13661;BME280;6903;49.480;11.102;2023-05-23T04:15:50;97604.97;;;16.67;100.00
13661;BME280;6903;49.480;11.102;2023-05-23T04:18:16;97603.28;;;16.74;100.00
13661;BME280;6903;49.480;11.102;2023-05-23T04:20:41;97608.44;;;16.83;100.00
13661;BME280;6903;49.480;11.102;2023-05-23T04:23:07;97615.59;;;16.91;100.00
13661;BME280;6903;49.480;11.102;2023-05-23T04:25:32;97618.88;;;17.01;100.00
13661;BME280;6903;49.480;11.102;2023-05-23T04:27:58;97607.22;;;17.10;100.00
13661;BME280;6903;49.480;11.102;2023-05-23T04:30:24;97620.69;;;17.17;100.00
13661;BME280;6903;49.480;11.102;2023-05-23T04:32:49;97617.16;;;17.24;100.00
13661;BME280;6903;49.480;11.102;2023-05-23T04:35:14;97616.28;;;17.32;100.00
13661;BME280;6903;49.480;11.102;2023-05-23T04:37:40;97629.44;;;17.41;100.00
13661;BME280;6903;49.480;11.102;2023-05-23T04:40:06;97621.78;;;17.46;100.00
13661;BME280;6903;49.480;11.102;2023-05-23T04:42:32;97625.94;;;17.49;100.00
13661;BME280;6903;49.480;11.102;2023-05-23T04:44:57;97630.59;;;17.47;100.00
13661;BME280;6903;49.480;11.102;2023-05-23T04:47:23;97629.09;;;17.52;100.00
13661;BME280;6903;49.480;11.102;2023-05-23T04:49:53;97632.41;;;17.54;100.00
13661;BME280;6903;49.480;11.102;2023-05-23T04:52:19;97633.25;;;17.55;100.00
13661;BME280;6903;49.480;11.102;2023-05-23T04:54:44;97635.25;;;17.53;100.00
13661;BME280;6903;49.480;11.102;2023-05-23T04:57:11;97638.41;;;17.56;100.00
13661;BME280;6903;49.480;11.102;2023-05-23T04:59:36;97644.53;;;17.65;100.00
13661;BME280;6903;49.480;11.102;2023-05-23T05:02:02;97641.56;;;17.90;100.00
13661;BME280;6903;49.480;11.102;2023-05-23T05:04:27;97643.69;;;18.25;100.00
13661;BME280;6903;49.480;11.102;2023-05-23T05:06:52;97642.06;;;18.70;100.00
13661;BME280;6903;49.480;11.102;2023-05-23T05:09:18;97641.31;;;19.13;100.00
13661;BME280;6903;49.480;11.102;2023-05-23T05:11:43;97648.09;;;19.52;100.00
13661;BME280;6903;49.480;11.102;2023-05-23T05:14:08;97642.16;;;19.86;100.00
13661;BME280;6903;49.480;11.102;2023-05-23T05:16:34;97648.00;;;20.25;100.00
13661;BME280;6903;49.480;11.102;2023-05-23T05:19:00;97644.69;;;20.65;100.00
13661;BME280;6903;49.480;11.102;2023-05-23T05:21:25;97649.25;;;20.92;100.00
13661;BME280;6903;49.480;11.102;2023-05-23T05:23:51;97650.53;;;21.18;100.00
13661;BME280;6903;49.480;11.102;2023-05-23T05:26:16;97644.34;;;21.51;100.00
13661;BME280;6903;49.480;11.102;2023-05-23T05:28:42;97652.19;;;21.80;100.00
13661;BME280;6903;49.480;11.102;2023-05-23T05:31:07;97649.00;;;22.11;100.00
13661;BME280;6903;49.480;11.102;2023-05-23T05:33:33;97649.72;;;22.45;100.00
13661;BME280;6903;49.480;11.102;2023-05-23T05:36:03;97650.84;;;22.64;100.00
13661;BME280;6903;49.480;11.102;2023-05-23T05:38:28;97653.75;;;22.82;100.00
13661;BME280;6903;49.480;11.102;2023-05-23T05:40:53;97651.06;;;22.95;100.00
13661;BME280;6903;49.480;11.102;2023-05-23T05:43:19;97644.22;;;23.12;100.00
13661;BME280;6903;49.480;11.102;2023-05-23T05:45:44;97641.31;;;23.20;100.00
13661;BME280;6903;49.480;11.102;2023-05-23T05:48:09;97647.75;;;23.39;100.00
13661;BME280;6903;49.480;11.102;2023-05-23T05:50:36;97650.59;;;23.63;100.00
13661;BME280;6903;49.480;11.102;2023-05-23T05:53:01;97653.84;;;23.98;100.00
13661;BME280;6903;49.480;11.102;2023-05-23T05:55:27;97657.19;;;24.31;100.00
13661;BME280;6903;49.480;11.102;2023-05-23T05:57:52;97653.72;;;24.62;100.00
13661;BME280;6903;49.480;11.102;2023-05-23T06:00:18;97661.59;;;24.94;100.00
13661;BME280;6903;49.480;11.102;2023-05-23T06:02:44;97664.31;;;25.19;100.00
13661;BME280;6903;49.480;11.102;2023-05-23T06:05:13;97664.25;;;25.50;100.00
13661;BME280;6903;49.480;11.102;2023-05-23T06:07:40;97661.13;;;25.71;100.00
13661;BME280;6903;49.480;11.102;2023-05-23T06:10:06;97663.78;;;25.96;100.00
13661;BME280;6903;49.480;11.102;2023-05-23T06:12:34;97654.84;;;25.77;100.00
13661;BME280;6903;49.480;11.102;2023-05-23T06:15:00;97657.75;;;25.94;100.00
13661;BME280;6903;49.480;11.102;2023-05-23T06:17:25;97662.78;;;25.90;100.00
13661;BME280;6903;49.480;11.102;2023-05-23T06:19:50;97662.00;;;25.47;100.00
13661;BME280;6903;49.480;11.102;2023-05-23T06:22:17;97651.78;;;25.74;100.00
13661;BME280;6903;49.480;11.102;2023-05-23T06:24:42;97662.19;;;25.70;100.00
13661;BME280;6903;49.480;11.102;2023-05-23T06:27:07;97661.44;;;25.81;100.00
13661;BME280;6903;49.480;11.102;2023-05-23T06:29:33;97660.75;;;25.86;100.00
13661;BME280;6903;49.480;11.102;2023-05-23T06:32:00;97657.22;;;25.49;100.00
13661;BME280;6903;49.480;11.102;2023-05-23T06:34:25;97671.03;;;25.10;100.00
13661;BME280;6903;49.480;11.102;2023-05-23T06:36:50;97672.28;;;24.83;100.00
13661;BME280;6903;49.480;11.102;2023-05-23T06:39:15;97668.03;;;24.62;100.00
13661;BME280;6903;49.480;11.102;2023-05-23T06:41:41;97660.16;;;24.67;100.00
13661;BME280;6903;49.480;11.102;2023-05-23T06:44:07;97661.34;;;25.02;100.00
13661;BME280;6903;49.480;11.102;2023-05-23T06:46:32;97672.69;;;25.60;100.00
13661;BME280;6903;49.480;11.102;2023-05-23T06:48:57;97667.22;;;25.85;100.00
13661;BME280;6903;49.480;11.102;2023-05-23T06:51:23;97680.72;;;26.39;97.52
13661;BME280;6903;49.480;11.102;2023-05-23T06:53:48;97674.19;;;26.76;92.33
13661;BME280;6903;49.480;11.102;2023-05-23T06:56:13;97677.38;;;26.73;89.94
13661;BME280;6903;49.480;11.102;2023-05-23T06:58:38;97691.25;;;26.29;90.99
13661;BME280;6903;49.480;11.102;2023-05-23T07:01:04;97683.44;;;26.21;91.39
13661;BME280;6903;49.480;11.102;2023-05-23T07:03:29;97688.84;;;25.85;92.82
13661;BME280;6903;49.480;11.102;2023-05-23T07:05:55;97682.50;;;25.55;93.43
13661;BME280;6903;49.480;11.102;2023-05-23T07:08:20;97690.63;;;25.24;95.85
13661;BME280;6903;49.480;11.102;2023-05-23T07:10:45;97690.75;;;24.79;100.00
13661;BME280;6903;49.480;11.102;2023-05-23T07:13:11;97693.22;;;24.81;100.00
13661;BME280;6903;49.480;11.102;2023-05-23T07:15:36;97693.72;;;24.65;100.00
13661;BME280;6903;49.480;11.102;2023-05-23T07:18:01;97693.78;;;24.08;100.00
13661;BME280;6903;49.480;11.102;2023-05-23T07:20:27;97698.56;;;23.93;100.00
13661;BME280;6903;49.480;11.102;2023-05-23T07:22:52;97705.56;;;24.13;100.00
13661;BME280;6903;49.480;11.102;2023-05-23T07:25:17;97702.81;;;24.33;100.00
13661;BME280;6903;49.480;11.102;2023-05-23T07:27:43;97702.19;;;24.31;100.00
13661;BME280;6903;49.480;11.102;2023-05-23T07:30:08;97697.25;;;24.21;100.00
13661;BME280;6903;49.480;11.102;2023-05-23T07:32:34;97701.81;;;24.27;100.00
13661;BME280;6903;49.480;11.102;2023-05-23T07:35:00;97694.78;;;24.20;100.00
13661;BME280;6903;49.480;11.102;2023-05-23T07:37:25;97696.69;;;24.13;100.00
13661;BME280;6903;49.480;11.102;2023-05-23T07:39:52;97701.03;;;24.14;100.00
13661;BME280;6903;49.480;11.102;2023-05-23T07:42:17;97707.94;;;23.84;100.00
13661;BME280;6903;49.480;11.102;2023-05-23T07:44:42;97704.66;;;23.55;100.00
13661;BME280;6903;49.480;11.102;2023-05-23T07:47:08;97708.41;;;23.54;100.00
13661;BME280;6903;49.480;11.102;2023-05-23T07:49:33;97706.69;;;23.79;100.00
13661;BME280;6903;49.480;11.102;2023-05-23T07:52:00;97717.25;;;23.68;100.00
13661;BME280;6903;49.480;11.102;2023-05-23T07:54:25;97705.72;;;23.48;100.00
13661;BME280;6903;49.480;11.102;2023-05-23T07:56:52;97717.31;;;23.29;100.00
13661;BME280;6903;49.480;11.102;2023-05-23T07:59:18;97713.31;;;23.05;100.00
13661;BME280;6903;49.480;11.102;2023-05-23T08:01:43;97717.72;;;23.32;100.00
13661;BME280;6903;49.480;11.102;2023-05-23T08:04:08;97720.78;;;23.68;100.00
13661;BME280;6903;49.480;11.102;2023-05-23T08:06:34;97714.53;;;23.81;100.00
13661;BME280;6903;49.480;11.102;2023-05-23T08:09:00;97723.66;;;24.00;100.00
13661;BME280;6903;49.480;11.102;2023-05-23T08:11:25;97720.13;;;23.93;100.00
13661;BME280;6903;49.480;11.102;2023-05-23T08:13:53;97722.63;;;24.01;100.00
13661;BME280;6903;49.480;11.102;2023-05-23T08:16:18;97723.38;;;24.21;100.00
13661;BME280;6903;49.480;11.102;2023-05-23T08:18:43;97724.44;;;24.13;100.00
13661;BME280;6903;49.480;11.102;2023-05-23T08:21:09;97721.34;;;24.10;100.00
13661;BME280;6903;49.480;11.102;2023-05-23T08:23:34;97710.47;;;24.29;100.00
13661;BME280;6903;49.480;11.102;2023-05-23T08:25:59;97714.88;;;24.68;100.00
13661;BME280;6903;49.480;11.102;2023-05-23T08:28:25;97716.84;;;25.17;96.60
13661;BME280;6903;49.480;11.102;2023-05-23T08:30:50;97716.72;;;25.36;94.42
13661;BME280;6903;49.480;11.102;2023-05-23T08:33:16;97720.78;;;25.45;92.35
13661;BME280;6903;49.480;11.102;2023-05-23T08:35:41;97719.19;;;25.38;92.12
13661;BME280;6903;49.480;11.102;2023-05-23T08:38:06;97712.56;;;25.09;92.46
13661;BME280;6903;49.480;11.102;2023-05-23T08:40:33;97725.00;;;25.10;92.46
13661;BME280;6903;49.480;11.102;2023-05-23T08:43:00;97722.66;;;25.69;91.02
13661;BME280;6903;49.480;11.102;2023-05-23T08:45:26;97731.56;;;26.30;85.38
13661;BME280;6903;49.480;11.102;2023-05-23T08:47:54;97730.91;;;26.35;82.30
13661;BME280;6903;49.480;11.102;2023-05-23T08:50:20;97731.59;;;26.12;80.68
13661;BME280;6903;49.480;11.102;2023-05-23T08:52:56;97725.72;;;25.73;83.20
13661;BME280;6903;49.480;11.102;2023-05-23T08:55:23;97731.09;;;25.97;80.66
13661;BME280;6903;49.480;11.102;2023-05-23T08:57:53;97734.44;;;26.17;79.25
13661;BME280;6903;49.480;11.102;2023-05-23T09:00:19;97741.66;;;26.23;77.57
13661;BME280;6903;49.480;11.102;2023-05-23T09:02:45;97747.78;;;26.48;77.15
13661;BME280;6903;49.480;11.102;2023-05-23T09:05:11;97745.50;;;26.16;74.05
13661;BME280;6903;49.480;11.102;2023-05-23T09:07:37;97739.66;;;25.94;76.88
13661;BME280;6903;49.480;11.102;2023-05-23T09:10:07;97745.50;;;26.16;77.82
13661;BME280;6903;49.480;11.102;2023-05-23T09:12:34;97751.16;;;26.80;76.65
13661;BME280;6903;49.480;11.102;2023-05-23T09:15:02;97748.34;;;27.16;72.96
13661;BME280;6903;49.480;11.102;2023-05-23T09:17:27;97750.03;;;27.29;71.83
13661;BME280;6903;49.480;11.102;2023-05-23T09:19:52;97761.97;;;27.10;70.25
13661;BME280;6903;49.480;11.102;2023-05-23T09:22:24;97761.22;;;27.32;69.34
13661;BME280;6903;49.480;11.102;2023-05-23T09:24:51;97746.66;;;27.45;67.76
13661;BME280;6903;49.480;11.102;2023-05-23T09:27:17;97756.00;;;27.60;66.58
13661;BME280;6903;49.480;11.102;2023-05-23T09:29:42;97755.63;;;27.57;66.13
13661;BME280;6903;49.480;11.102;2023-05-23T09:32:12;97748.69;;;27.49;66.66
13661;BME280;6903;49.480;11.102;2023-05-23T09:34:42;97757.13;;;27.30;67.62
13661;BME280;6903;49.480;11.102;2023-05-23T09:37:07;97756.22;;;27.59;66.93
13661;BME280;6903;49.480;11.102;2023-05-23T09:39:36;97762.13;;;27.79;66.36
13661;BME280;6903;49.480;11.102;2023-05-23T09:42:02;97758.84;;;27.89;63.80
13661;BME280;6903;49.480;11.102;2023-05-23T09:44:28;97764.75;;;27.97;64.38
13661;BME280;6903;49.480;11.102;2023-05-23T09:46:53;97764.50;;;28.22;63.56
13661;BME280;6903;49.480;11.102;2023-05-23T09:49:19;97762.72;;;28.50;61.64
13661;BME280;6903;49.480;11.102;2023-05-23T09:51:59;97767.69;;;28.81;62.58
13661;BME280;6903;49.480;11.102;2023-05-23T09:54:24;97768.44;;;28.77;61.61
13661;BME280;6903;49.480;11.102;2023-05-23T09:56:51;97775.72;;;29.04;60.27
13661;BME280;6903;49.480;11.102;2023-05-23T09:59:17;97777.66;;;28.53;59.74
13661;BME280;6903;49.480;11.102;2023-05-23T10:01:50;97776.06;;;28.17;61.18
13661;BME280;6903;49.480;11.102;2023-05-23T10:04:20;97785.84;;;27.95;62.25
13661;BME280;6903;49.480;11.102;2023-05-23T10:06:52;97771.44;;;28.18;62.88
13661;BME280;6903;49.480;11.102;2023-05-23T10:09:20;97779.09;;;28.44;62.33
13661;BME280;6903;49.480;11.102;2023-05-23T10:14:34;97779.13;;;28.83;56.99
13661;BME280;6903;49.480;11.102;2023-05-23T10:17:15;97788.75;;;29.02;57.25
13661;BME280;6903;49.480;11.102;2023-05-23T10:19:47;97772.88;;;29.39;55.76
13661;BME280;6903;49.480;11.102;2023-05-23T10:22:17;97769.94;;;29.57;54.72
13661;BME280;6903;49.480;11.102;2023-05-23T10:24:46;97773.28;;;29.64;52.84
13661;BME280;6903;49.480;11.102;2023-05-23T10:27:12;97776.41;;;29.23;53.07
13661;BME280;6903;49.480;11.102;2023-05-23T10:29:38;97780.50;;;29.26;53.36
13661;BME280;6903;49.480;11.102;2023-05-23T10:32:04;97783.13;;;29.82;51.90
13661;BME280;6903;49.480;11.102;2023-05-23T10:34:36;97785.84;;;30.53;49.68
13661;BME280;6903;49.480;11.102;2023-05-23T10:37:06;97792.31;;;30.47;48.84
13661;BME280;6903;49.480;11.102;2023-05-23T10:39:56;97792.28;;;30.09;48.11
13661;BME280;6903;49.480;11.102;2023-05-23T10:45:20;97793.38;;;28.62;49.39
13661;BME280;6903;49.480;11.102;2023-05-23T10:47:51;97788.06;;;28.56;50.71
13661;BME280;6903;49.480;11.102;2023-05-23T10:50:33;97787.50;;;28.82;50.69
13661;BME280;6903;49.480;11.102;2023-05-23T10:53:00;97783.88;;;29.04;50.41
13661;BME280;6903;49.480;11.102;2023-05-23T10:55:31;97792.78;;;29.28;49.86
13661;BME280;6903;49.480;11.102;2023-05-23T10:58:14;97791.25;;;29.49;48.42
13661;BME280;6903;49.480;11.102;2023-05-23T11:00:59;97796.94;;;29.47;47.51
13661;BME280;6903;49.480;11.102;2023-05-23T11:03:35;97803.31;;;29.25;47.70
13661;BME280;6903;49.480;11.102;2023-05-23T11:06:02;97801.03;;;29.33;48.25
13661;BME280;6903;49.480;11.102;2023-05-23T11:08:35;97802.13;;;29.21;48.10
13661;BME280;6903;49.480;11.102;2023-05-23T11:11:02;97803.50;;;28.95;47.16
13661;BME280;6903;49.480;11.102;2023-05-23T11:13:56;97803.13;;;29.03;47.45
13661;BME280;6903;49.480;11.102;2023-05-23T11:16:33;97811.13;;;29.21;47.24
13661;BME280;6903;49.480;11.102;2023-05-23T11:21:45;97804.16;;;29.70;46.99
13661;BME280;6903;49.480;11.102;2023-05-23T11:24:10;97801.19;;;29.88;45.30
13661;BME280;6903;49.480;11.102;2023-05-23T11:26:36;97804.47;;;30.06;45.13
13661;BME280;6903;49.480;11.102;2023-05-23T11:29:01;97809.81;;;30.34;44.63
13661;BME280;6903;49.480;11.102;2023-05-23T11:31:29;97812.00;;;30.76;44.86
13661;BME280;6903;49.480;11.102;2023-05-23T11:33:55;97807.50;;;31.08;42.81
13661;BME280;6903;49.480;11.102;2023-05-23T11:36:21;97809.72;;;31.32;43.10
13661;BME280;6903;49.480;11.102;2023-05-23T11:38:51;97806.38;;;31.04;42.46
13661;BME280;6903;49.480;11.102;2023-05-23T11:41:17;97807.34;;;30.93;43.01
13661;BME280;6903;49.480;11.102;2023-05-23T11:43:51;97810.19;;;30.81;42.21
13661;BME280;6903;49.480;11.102;2023-05-23T11:46:17;97805.38;;;30.88;42.27
13661;BME280;6903;49.480;11.102;2023-05-23T11:48:46;97815.66;;;30.81;41.15
13661;BME280;6903;49.480;11.102;2023-05-23T11:51:12;97811.75;;;30.56;40.95
13661;BME280;6903;49.480;11.102;2023-05-23T11:53:37;97809.06;;;30.39;41.34
13661;BME280;6903;49.480;11.102;2023-05-23T11:56:03;97804.78;;;30.10;41.65
13661;BME280;6903;49.480;11.102;2023-05-23T11:58:32;97801.41;;;30.03;41.88
13661;BME280;6903;49.480;11.102;2023-05-23T12:01:00;97804.69;;;28.99;42.54
13661;BME280;6903;49.480;11.102;2023-05-23T12:03:25;97803.88;;;28.24;44.88
13661;BME280;6903;49.480;11.102;2023-05-23T12:05:50;97805.03;;;27.70;46.15
13661;BME280;6903;49.480;11.102;2023-05-23T12:08:16;97800.88;;;27.68;47.15
13661;BME280;6903;49.480;11.102;2023-05-23T12:10:51;97805.72;;;27.77;47.23
13661;BME280;6903;49.480;11.102;2023-05-23T12:13:18;97804.91;;;27.77;47.54
13661;BME280;6903;49.480;11.102;2023-05-23T12:15:43;97803.72;;;27.85;47.39
13661;BME280;6903;49.480;11.102;2023-05-23T12:18:10;97813.78;;;28.07;47.03
13661;BME280;6903;49.480;11.102;2023-05-23T12:20:36;97812.00;;;28.36;46.42
13661;BME280;6903;49.480;11.102;2023-05-23T12:23:04;97807.25;;;28.66;45.61
13661;BME280;6903;49.480;11.102;2023-05-23T12:25:39;97801.28;;;28.41;45.01
13661;BME280;6903;49.480;11.102;2023-05-23T12:28:04;97808.13;;;28.09;45.46
13661;BME280;6903;49.480;11.102;2023-05-23T12:30:40;97807.59;;;27.65;46.38
13661;BME280;6903;49.480;11.102;2023-05-23T12:33:07;97813.38;;;27.28;46.77
13661;BME280;6903;49.480;11.102;2023-05-23T12:35:33;97813.44;;;26.56;48.53
13661;BME280;6903;49.480;11.102;2023-05-23T12:37:58;97814.84;;;26.04;49.88
13661;BME280;6903;49.480;11.102;2023-05-23T12:40:23;97824.47;;;25.93;50.88
13661;BME280;6903;49.480;11.102;2023-05-23T12:42:55;97818.84;;;25.08;52.91
13661;BME280;6903;49.480;11.102;2023-05-23T12:45:22;97823.97;;;24.78;54.64
13661;BME280;6903;49.480;11.102;2023-05-23T12:47:48;97821.53;;;24.57;56.14
13661;BME280;6903;49.480;11.102;2023-05-23T12:50:13;97823.19;;;24.52;56.34
13661;BME280;6903;49.480;11.102;2023-05-23T12:52:39;97832.91;;;24.79;56.16
13661;BME280;6903;49.480;11.102;2023-05-23T12:55:05;97825.19;;;24.76;56.30
13661;BME280;6903;49.480;11.102;2023-05-23T12:57:32;97822.78;;;24.55;56.56
13661;BME280;6903;49.480;11.102;2023-05-23T12:59:58;97830.72;;;24.37;57.56
13661;BME280;6903;49.480;11.102;2023-05-23T13:02:23;97829.19;;;24.67;57.74
13661;BME280;6903;49.480;11.102;2023-05-23T13:04:48;97833.72;;;24.66;57.91
13661;BME280;6903;49.480;11.102;2023-05-23T13:07:14;97834.16;;;24.57;58.09